sensor_id;sensor_type;location;lat;lon;timestamp;pressure;altitude;pressure_sealevel;temperature;humidity
7407;BME280;3745;56.964;24.128;2023-07-13T00:00:25;100599.00;;;20.25;100.00
7407;BME280;3745;56.964;24.128;2023-07-13T00:02:51;100523.28;;;19.79;100.00
7407;BME280;3745;56.964;24.128;2023-07-13T00:05:22;100586.34;;;20.19;100.00
7407;BME280;3745;56.964;24.128;2023-07-13T00:07:49;100575.28;;;20.17;100.00
7407;BME280;3745;56.964;24.128;2023-07-13T00:10:15;100586.16;;;20.25;100.00
7407;BME280;3745;56.964;24.128;2023-07-13T00:12:41;100581.88;;;20.27;100.00
7407;BME280;3745;56.964;24.128;2023-07-13T00:15:20;100543.22;;;20.00;100.00
7407;BME280;3745;56.964;24.128;2023-07-13T00:17:52;100546.50;;;20.06;100.00
7407;BME280;3745;56.964;24.128;2023-07-13T00:20:19;100525.22;;;20.00;100.00
7407;BME280;3745;56.964;24.128;2023-07-13T00:22:47;100551.38;;;20.15;100.00
7407;BME280;3745;56.964;24.128;2023-07-13T00:25:12;100482.47;;;19.70;100.00
7407;BME280;3745;56.964;24.128;2023-07-13T00:27:38;100582.38;;;20.38;100.00
7407;BME280;3745;56.964;24.128;2023-07-13T00:30:04;100532.63;;;20.11;100.00
7407;BME280;3745;56.964;24.128;2023-07-13T00:32:30;100571.22;;;20.39;100.00
7407;BME280;3745;56.964;24.128;2023-07-13T00:34:58;100532.47;;;20.16;100.00
7407;BME280;3745;56.964;24.128;2023-07-13T00:37:25;100549.19;;;20.30;100.00
7407;BME280;3745;56.964;24.128;2023-07-13T00:39:51;100567.94;;;20.34;100.00
7407;BME280;3745;56.964;24.128;2023-07-13T00:42:18;100550.94;;;20.30;100.00
7407;BME280;3745;56.964;24.128;2023-07-13T00:47:44;100567.13;;;20.32;100.00
7407;BME280;3745;56.964;24.128;2023-07-13T00:50:12;100562.78;;;20.34;100.00
7407;BME280;3745;56.964;24.128;2023-07-13T00:52:41;100543.41;;;20.22;100.00
7407;BME280;3745;56.964;24.128;2023-07-13T00:55:09;100562.78;;;20.34;100.00
7407;BME280;3745;56.964;24.128;2023-07-13T00:57:36;100559.44;;;20.32;100.00
7407;BME280;3745;56.964;24.128;2023-07-13T01:00:04;100556.84;;;20.32;100.00
7407;BME280;3745;56.964;24.128;2023-07-13T01:02:32;100549.06;;;20.35;100.00
7407;BME280;3745;56.964;24.128;2023-07-13T01:04:58;100511.25;;;20.09;100.00
7407;BME280;3745;56.964;24.128;2023-07-13T01:07:24;100513.13;;;20.04;100.00
7407;BME280;3745;56.964;24.128;2023-07-13T01:09:50;100546.66;;;20.29;100.00
7407;BME280;3745;56.964;24.128;2023-07-13T01:12:16;100506.38;;;20.00;100.00
7407;BME280;3745;56.964;24.128;2023-07-13T01:14:41;100545.78;;;20.30;100.00
7407;BME280;3745;56.964;24.128;2023-07-13T01:17:09;100520.34;;;20.21;100.00
7407;BME280;3745;56.964;24.128;2023-07-13T01:19:38;100528.69;;;20.29;100.00
7407;BME280;3745;56.964;24.128;2023-07-13T01:22:23;100489.69;;;20.15;100.00
7407;BME280;3745;56.964;24.128;2023-07-13T01:24:53;100465.38;;;19.97;100.00
7407;BME280;3745;56.964;24.128;2023-07-13T01:27:24;100506.41;;;20.28;100.00
7407;BME280;3745;56.964;24.128;2023-07-13T01:29:52;100525.78;;;20.39;100.00
7407;BME280;3745;56.964;24.128;2023-07-13T01:32:22;100490.22;;;20.26;100.00
7407;BME280;3745;56.964;24.128;2023-07-13T01:34:53;100478.28;;;20.23;100.00
7407;BME280;3745;56.964;24.128;2023-07-13T01:37:20;100492.59;;;20.32;100.00
7407;BME280;3745;56.964;24.128;2023-07-13T01:39:46;100486.66;;;20.30;100.00
7407;BME280;3745;56.964;24.128;2023-07-13T01:42:13;100473.91;;;20.27;100.00
7407;BME280;3745;56.964;24.128;2023-07-13T01:44:38;100505.84;;;20.46;100.00
7407;BME280;3745;56.964;24.128;2023-07-13T01:47:04;100513.34;;;20.52;100.00
7407;BME280;3745;56.964;24.128;2023-07-13T01:49:30;100471.28;;;20.28;100.00
7407;BME280;3745;56.964;24.128;2023-07-13T01:51:56;100475.38;;;20.34;100.00
7407;BME280;3745;56.964;24.128;2023-07-13T01:54:22;100500.59;;;20.49;100.00
7407;BME280;3745;56.964;24.128;2023-07-13T01:56:48;100510.78;;;20.52;100.00
7407;BME280;3745;56.964;24.128;2023-07-13T01:59:13;100448.38;;;20.21;100.00
7407;BME280;3745;56.964;24.128;2023-07-13T02:01:39;100448.56;;;20.15;100.00
7407;BME280;3745;56.964;24.128;2023-07-13T02:04:05;100502.19;;;20.53;100.00
7407;BME280;3745;56.964;24.128;2023-07-13T02:06:30;100406.16;;;20.01;100.00
7407;BME280;3745;56.964;24.128;2023-07-13T02:08:56;100488.47;;;20.54;100.00
7407;BME280;3745;56.964;24.128;2023-07-13T02:11:21;100500.41;;;20.55;100.00
7407;BME280;3745;56.964;24.128;2023-07-13T02:13:47;100412.25;;;19.99;100.00
7407;BME280;3745;56.964;24.128;2023-07-13T02:16:13;100398.03;;;19.87;100.00
7407;BME280;3745;56.964;24.128;2023-07-13T02:18:38;100437.78;;;20.03;100.00
7407;BME280;3745;56.964;24.128;2023-07-13T02:21:04;100495.06;;;20.35;100.00
7407;BME280;3745;56.964;24.128;2023-07-13T02:23:30;100386.75;;;19.65;100.00
7407;BME280;3745;56.964;24.128;2023-07-13T02:25:56;100471.44;;;19.94;100.00
7407;BME280;3745;56.964;24.128;2023-07-13T02:28:22;100494.13;;;20.10;100.00
7407;BME280;3745;56.964;24.128;2023-07-13T02:30:48;100458.59;;;19.94;100.00
7407;BME280;3745;56.964;24.128;2023-07-13T02:33:14;100442.69;;;19.83;100.00
7407;BME280;3745;56.964;24.128;2023-07-13T02:35:39;100487.44;;;20.04;100.00
7407;BME280;3745;56.964;24.128;2023-07-13T02:38:06;100489.97;;;20.06;100.00
7407;BME280;3745;56.964;24.128;2023-07-13T02:40:31;100414.19;;;19.63;100.00
7407;BME280;3745;56.964;24.128;2023-07-13T02:43:01;100476.97;;;19.82;100.00
7407;BME280;3745;56.964;24.128;2023-07-13T02:45:27;100497.63;;;20.07;100.00
7407;BME280;3745;56.964;24.128;2023-07-13T02:47:54;100468.28;;;19.86;100.00
7407;BME280;3745;56.964;24.128;2023-07-13T02:50:20;100429.41;;;19.69;100.00
7407;BME280;3745;56.964;24.128;2023-07-13T02:52:45;100429.31;;;19.72;100.00
7407;BME280;3745;56.964;24.128;2023-07-13T02:55:11;100494.94;;;20.12;100.00
7407;BME280;3745;56.964;24.128;2023-07-13T02:57:37;100407.22;;;19.68;100.00
7407;BME280;3745;56.964;24.128;2023-07-13T03:00:04;100466.31;;;19.94;100.00
7407;BME280;3745;56.964;24.128;2023-07-13T03:02:33;100443.63;;;19.81;100.00
7407;BME280;3745;56.964;24.128;2023-07-13T03:04:59;100310.06;;;18.98;100.00
7407;BME280;3745;56.964;24.128;2023-07-13T03:07:25;100501.53;;;20.19;100.00
7407;BME280;3745;56.964;24.128;2023-07-13T03:09:57;100467.81;;;20.01;100.00
7407;BME280;3745;56.964;24.128;2023-07-13T03:12:23;100483.84;;;20.10;100.00
7407;BME280;3745;56.964;24.128;2023-07-13T03:14:49;100433.00;;;19.93;100.00
7407;BME280;3745;56.964;24.128;2023-07-13T03:17:15;100461.00;;;20.00;100.00
7407;BME280;3745;56.964;24.128;2023-07-13T03:19:40;100502.19;;;20.27;100.00
7407;BME280;3745;56.964;24.128;2023-07-13T03:22:06;100478.78;;;20.07;100.00
7407;BME280;3745;56.964;24.128;2023-07-13T03:24:33;100461.28;;;19.91;100.00
7407;BME280;3745;56.964;24.128;2023-07-13T03:27:01;100484.84;;;20.06;100.00
7407;BME280;3745;56.964;24.128;2023-07-13T03:29:27;100446.41;;;19.73;100.00
7407;BME280;3745;56.964;24.128;2023-07-13T03:31:53;100518.06;;;20.12;100.00
7407;BME280;3745;56.964;24.128;2023-07-13T03:34:18;100515.38;;;20.15;100.00
7407;BME280;3745;56.964;24.128;2023-07-13T03:36:44;100527.56;;;20.08;100.00
7407;BME280;3745;56.964;24.128;2023-07-13T03:39:10;100525.66;;;20.15;100.00
7407;BME280;3745;56.964;24.128;2023-07-13T03:41:36;100509.84;;;19.71;100.00
7407;BME280;3745;56.964;24.128;2023-07-13T03:44:01;100476.34;;;19.45;100.00
7407;BME280;3745;56.964;24.128;2023-07-13T03:46:27;100545.09;;;19.95;100.00
7407;BME280;3745;56.964;24.128;2023-07-13T03:48:53;100523.28;;;19.79;100.00
7407;BME280;3745;56.964;24.128;2023-07-13T03:51:19;100503.84;;;19.71;100.00
7407;BME280;3745;56.964;24.128;2023-07-13T03:53:47;100543.47;;;19.91;100.00
7407;BME280;3745;56.964;24.128;2023-07-13T03:56:14;100501.22;;;19.72;100.00
7407;BME280;3745;56.964;24.128;2023-07-13T03:58:42;100450.91;;;19.36;100.00
7407;BME280;3745;56.964;24.128;2023-07-13T04:01:09;100509.44;;;19.54;100.00
7407;BME280;3745;56.964;24.128;2023-07-13T04:03:36;100476.44;;;19.42;100.00
7407;BME280;3745;56.964;24.128;2023-07-13T04:06:03;100556.94;;;19.99;100.00
7407;BME280;3745;56.964;24.128;2023-07-13T04:08:33;100528.59;;;19.73;100.00
7407;BME280;3745;56.964;24.128;2023-07-13T04:11:00;100562.81;;;20.03;100.00
7407;BME280;3745;56.964;24.128;2023-07-13T04:13:26;100477.69;;;19.58;100.00
7407;BME280;3745;56.964;24.128;2023-07-13T04:15:53;100570.59;;;20.01;100.00
7407;BME280;3745;56.964;24.128;2023-07-13T04:18:19;100548.44;;;19.97;100.00
7407;BME280;3745;56.964;24.128;2023-07-13T04:20:46;100580.69;;;20.08;100.00
7407;BME280;3745;56.964;24.128;2023-07-13T04:23:13;100556.31;;;19.91;100.00
7407;BME280;3745;56.964;24.128;2023-07-13T04:25:39;100503.53;;;19.52;100.00
7407;BME280;3745;56.964;24.128;2023-07-13T04:28:04;100564.38;;;19.79;100.00
7407;BME280;3745;56.964;24.128;2023-07-13T04:30:30;100603.84;;;20.06;100.00
7407;BME280;3745;56.964;24.128;2023-07-13T04:32:56;100593.00;;;19.96;100.00
7407;BME280;3745;56.964;24.128;2023-07-13T04:35:22;100602.19;;;20.05;100.00
7407;BME280;3745;56.964;24.128;2023-07-13T04:37:49;100578.41;;;19.97;100.00
7407;BME280;3745;56.964;24.128;2023-07-13T04:40:20;100543.84;;;19.79;100.00
7407;BME280;3745;56.964;24.128;2023-07-13T04:42:46;100609.66;;;20.13;100.00
7407;BME280;3745;56.964;24.128;2023-07-13T04:45:13;100584.63;;;19.90;100.00
7407;BME280;3745;56.964;24.128;2023-07-13T04:47:40;100598.38;;;19.87;100.00
7407;BME280;3745;56.964;24.128;2023-07-13T04:50:07;100561.69;;;19.84;100.00
7407;BME280;3745;56.964;24.128;2023-07-13T04:52:33;100598.78;;;20.03;100.00
7407;BME280;3745;56.964;24.128;2023-07-13T04:54:59;100629.81;;;20.28;100.00
7407;BME280;3745;56.964;24.128;2023-07-13T04:57:25;100627.88;;;20.36;100.00
7407;BME280;3745;56.964;24.128;2023-07-13T04:59:51;100632.91;;;20.39;100.00
7407;BME280;3745;56.964;24.128;2023-07-13T05:02:16;100585.75;;;20.11;100.00
7407;BME280;3745;56.964;24.128;2023-07-13T05:04:42;100570.84;;;19.92;100.00
7407;BME280;3745;56.964;24.128;2023-07-13T05:07:08;100644.66;;;20.17;100.00
7407;BME280;3745;56.964;24.128;2023-07-13T05:09:33;100618.84;;;19.90;100.00
7407;BME280;3745;56.964;24.128;2023-07-13T05:11:59;100537.00;;;19.47;100.00
7407;BME280;3745;56.964;24.128;2023-07-13T05:14:24;100564.53;;;19.73;100.00
7407;BME280;3745;56.964;24.128;2023-07-13T05:16:50;100612.88;;;20.21;100.00
7407;BME280;3745;56.964;24.128;2023-07-13T05:19:15;100579.66;;;20.13;100.00
7407;BME280;3745;56.964;24.128;2023-07-13T05:21:41;100625.38;;;20.33;100.00
7407;BME280;3745;56.964;24.128;2023-07-13T05:24:07;100614.19;;;20.34;100.00
7407;BME280;3745;56.964;24.128;2023-07-13T05:26:32;100618.97;;;20.46;100.00
7407;BME280;3745;56.964;24.128;2023-07-13T05:28:58;100616.13;;;20.55;100.00
7407;BME280;3745;56.964;24.128;2023-07-13T05:31:23;100517.22;;;20.10;100.00
7407;BME280;3745;56.964;24.128;2023-07-13T05:33:49;100600.75;;;20.53;100.00
7407;BME280;3745;56.964;24.128;2023-07-13T05:36:15;100636.19;;;20.72;100.00
7407;BME280;3745;56.964;24.128;2023-07-13T05:38:40;100633.78;;;20.67;100.00
7407;BME280;3745;56.964;24.128;2023-07-13T05:41:06;100575.38;;;20.14;100.00
7407;BME280;3745;56.964;24.128;2023-07-13T05:43:32;100501.03;;;19.78;100.00
7407;BME280;3745;56.964;24.128;2023-07-13T05:45:58;100633.19;;;20.85;100.00
7407;BME280;3745;56.964;24.128;2023-07-13T05:48:24;100633.47;;;21.04;100.00
7407;BME280;3745;56.964;24.128;2023-07-13T05:50:50;100591.13;;;20.86;100.00
7407;BME280;3745;56.964;24.128;2023-07-13T05:53:16;100611.94;;;21.06;100.00
7407;BME280;3745;56.964;24.128;2023-07-13T05:55:46;100628.19;;;21.35;100.00
7407;BME280;3745;56.964;24.128;2023-07-13T05:58:19;100579.69;;;20.95;100.00
7407;BME280;3745;56.964;24.128;2023-07-13T06:00:47;100621.94;;;21.16;100.00
7407;BME280;3745;56.964;24.128;2023-07-13T06:03:12;100641.94;;;21.34;100.00
7407;BME280;3745;56.964;24.128;2023-07-13T06:05:38;100628.88;;;21.38;100.00
7407;BME280;3745;56.964;24.128;2023-07-13T06:08:05;100581.56;;;20.91;100.00
7407;BME280;3745;56.964;24.128;2023-07-13T06:10:35;100567.88;;;20.89;100.00
7407;BME280;3745;56.964;24.128;2023-07-13T06:13:01;100596.56;;;21.30;100.00
7407;BME280;3745;56.964;24.128;2023-07-13T06:15:27;100604.09;;;21.36;100.00
7407;BME280;3745;56.964;24.128;2023-07-13T06:17:53;100625.84;;;21.52;100.00
7407;BME280;3745;56.964;24.128;2023-07-13T06:20:18;100616.34;;;21.54;100.00
7407;BME280;3745;56.964;24.128;2023-07-13T06:22:44;100620.59;;;21.55;100.00
7407;BME280;3745;56.964;24.128;2023-07-13T06:25:09;100635.84;;;21.61;100.00
7407;BME280;3745;56.964;24.128;2023-07-13T06:27:35;100600.31;;;21.46;100.00
7407;BME280;3745;56.964;24.128;2023-07-13T06:30:03;100600.88;;;21.54;100.00
7407;BME280;3745;56.964;24.128;2023-07-13T06:32:29;100556.38;;;21.26;100.00
7407;BME280;3745;56.964;24.128;2023-07-13T06:34:55;100632.97;;;21.93;100.00
7407;BME280;3745;56.964;24.128;2023-07-13T06:37:21;100631.00;;;22.01;100.00
7407;BME280;3745;56.964;24.128;2023-07-13T06:39:46;100630.88;;;22.04;100.00
7407;BME280;3745;56.964;24.128;2023-07-13T06:42:12;100638.44;;;21.84;100.00
7407;BME280;3745;56.964;24.128;2023-07-13T06:44:37;100599.56;;;21.67;100.00
7407;BME280;3745;56.964;24.128;2023-07-13T06:47:03;100639.00;;;21.94;100.00
7407;BME280;3745;56.964;24.128;2023-07-13T06:49:29;100524.66;;;21.25;100.00
7407;BME280;3745;56.964;24.128;2023-07-13T06:51:56;100646.47;;;22.01;100.00
7407;BME280;3745;56.964;24.128;2023-07-13T06:54:22;100653.78;;;22.12;100.00
7407;BME280;3745;56.964;24.128;2023-07-13T06:56:47;100655.66;;;22.32;100.00
7407;BME280;3745;56.964;24.128;2023-07-13T06:59:13;100600.69;;;21.83;100.00
7407;BME280;3745;56.964;24.128;2023-07-13T07:01:38;100662.03;;;21.98;100.00
7407;BME280;3745;56.964;24.128;2023-07-13T07:04:04;100660.66;;;21.88;100.00
7407;BME280;3745;56.964;24.128;2023-07-13T07:06:30;100660.97;;;21.79;100.00
7407;BME280;3745;56.964;24.128;2023-07-13T07:08:55;100608.72;;;21.51;100.00
7407;BME280;3745;56.964;24.128;2023-07-13T07:11:23;100660.13;;;21.79;100.00
7407;BME280;3745;56.964;24.128;2023-07-13T07:13:50;100650.53;;;21.82;100.00
7407;BME280;3745;56.964;24.128;2023-07-13T07:16:17;100648.63;;;21.87;100.00
7407;BME280;3745;56.964;24.128;2023-07-13T07:18:43;100659.91;;;22.09;100.00
7407;BME280;3745;56.964;24.128;2023-07-13T07:21:09;100666.75;;;22.10;100.00
7407;BME280;3745;56.964;24.128;2023-07-13T07:23:34;100608.53;;;21.80;100.00
7407;BME280;3745;56.964;24.128;2023-07-13T07:26:00;100632.47;;;21.84;100.00
7407;BME280;3745;56.964;24.128;2023-07-13T07:28:26;100687.03;;;22.20;100.00
7407;BME280;3745;56.964;24.128;2023-07-13T07:30:55;100596.22;;;21.65;100.00
7407;BME280;3745;56.964;24.128;2023-07-13T07:33:34;100481.19;;;20.91;100.00
7407;BME280;3745;56.964;24.128;2023-07-13T07:36:00;100678.53;;;22.18;100.00
7407;BME280;3745;56.964;24.128;2023-07-13T07:38:26;100691.84;;;22.29;100.00
7407;BME280;3745;56.964;24.128;2023-07-13T07:40:52;100634.34;;;22.03;100.00
7407;BME280;3745;56.964;24.128;2023-07-13T07:43:18;100626.38;;;21.86;100.00
7407;BME280;3745;56.964;24.128;2023-07-13T07:45:45;100680.44;;;22.36;100.00
7407;BME280;3745;56.964;24.128;2023-07-13T07:48:10;100625.63;;;22.07;100.00
7407;BME280;3745;56.964;24.128;2023-07-13T07:50:36;100689.25;;;22.30;100.00
7407;BME280;3745;56.964;24.128;2023-07-13T07:53:03;100682.66;;;22.22;100.00
7407;BME280;3745;56.964;24.128;2023-07-13T07:55:33;100690.63;;;22.15;100.00
7407;BME280;3745;56.964;24.128;2023-07-13T07:57:59;100697.25;;;22.23;100.00
7407;BME280;3745;56.964;24.128;2023-07-13T08:00:24;100698.81;;;22.27;100.00
7407;BME280;3745;56.964;24.128;2023-07-13T08:02:50;100621.44;;;21.80;100.00
7407;BME280;3745;56.964;24.128;2023-07-13T08:05:16;100572.75;;;21.48;100.00
7407;BME280;3745;56.964;24.128;2023-07-13T08:07:42;100701.63;;;22.44;100.00
7407;BME280;3745;56.964;24.128;2023-07-13T08:10:08;100697.38;;;22.66;100.00
7407;BME280;3745;56.964;24.128;2023-07-13T08:12:34;100679.00;;;22.95;100.00
7407;BME280;3745;56.964;24.128;2023-07-13T08:15:00;100669.75;;;23.11;100.00
7407;BME280;3745;56.964;24.128;2023-07-13T08:17:26;100706.25;;;23.46;100.00
7407;BME280;3745;56.964;24.128;2023-07-13T08:19:52;100624.03;;;23.13;100.00
7407;BME280;3745;56.964;24.128;2023-07-13T08:22:18;100702.53;;;23.53;100.00
7407;BME280;3745;56.964;24.128;2023-07-13T08:24:43;100665.81;;;23.45;100.00
7407;BME280;3745;56.964;24.128;2023-07-13T08:27:10;100680.56;;;23.43;100.00
7407;BME280;3745;56.964;24.128;2023-07-13T08:29:37;100690.13;;;23.61;100.00
7407;BME280;3745;56.964;24.128;2023-07-13T08:32:04;100714.41;;;23.57;100.00
7407;BME280;3745;56.964;24.128;2023-07-13T08:34:31;100687.31;;;23.23;100.00
7407;BME280;3745;56.964;24.128;2023-07-13T08:36:56;100679.31;;;23.09;100.00
7407;BME280;3745;56.964;24.128;2023-07-13T08:39:22;100719.22;;;23.22;100.00
7407;BME280;3745;56.964;24.128;2023-07-13T08:41:51;100741.94;;;23.14;100.00
7407;BME280;3745;56.964;24.128;2023-07-13T08:47:02;100716.72;;;22.99;100.00
7407;BME280;3745;56.964;24.128;2023-07-13T08:49:28;100742.53;;;23.21;100.00
7407;BME280;3745;56.964;24.128;2023-07-13T08:52:02;100743.63;;;23.15;100.00
7407;BME280;3745;56.964;24.128;2023-07-13T08:54:38;100676.75;;;22.88;100.00
7407;BME280;3745;56.964;24.128;2023-07-13T08:57:19;100740.44;;;23.52;100.00
7407;BME280;3745;56.964;24.128;2023-07-13T08:59:45;100691.03;;;23.38;100.00
7407;BME280;3745;56.964;24.128;2023-07-13T09:02:26;100709.50;;;23.71;100.00
7407;BME280;3745;56.964;24.128;2023-07-13T09:08:04;100699.28;;;23.88;100.00
7407;BME280;3745;56.964;24.128;2023-07-13T09:10:45;100733.16;;;23.82;100.00
7407;BME280;3745;56.964;24.128;2023-07-13T09:13:35;100715.09;;;23.60;100.00
7407;BME280;3745;56.964;24.128;2023-07-13T09:16:06;100733.53;;;23.93;100.00
7407;BME280;3745;56.964;24.128;2023-07-13T09:18:35;100755.84;;;24.16;100.00
7407;BME280;3745;56.964;24.128;2023-07-13T09:21:25;100715.69;;;24.07;100.00
7407;BME280;3745;56.964;24.128;2023-07-13T09:23:59;100731.94;;;24.11;100.00
7407;BME280;3745;56.964;24.128;2023-07-13T09:26:29;100700.69;;;23.95;100.00
7407;BME280;3745;56.964;24.128;2023-07-13T09:29:00;100720.34;;;24.19;100.00
7407;BME280;3745;56.964;24.128;2023-07-13T09:31:36;100744.63;;;24.36;100.00
7407;BME280;3745;56.964;24.128;2023-07-13T09:34:11;100717.69;;;24.21;100.00
7407;BME280;3745;56.964;24.128;2023-07-13T09:36:38;100748.72;;;24.60;100.00
7407;BME280;3745;56.964;24.128;2023-07-13T09:39:14;100571.09;;;23.64;100.00
7407;BME280;3745;56.964;24.128;2023-07-13T09:44:51;100702.31;;;24.37;100.00
7407;BME280;3745;56.964;24.128;2023-07-13T09:47:20;100691.00;;;24.20;100.00
7407;BME280;3745;56.964;24.128;2023-07-13T09:49:54;100750.41;;;24.61;100.00
7407;BME280;3745;56.964;24.128;2023-07-13T09:52:20;100705.41;;;24.45;100.00
7407;BME280;3745;56.964;24.128;2023-07-13T09:54:49;100744.28;;;24.62;100.00
7407;BME280;3745;56.964;24.128;2023-07-13T09:57:17;100750.53;;;24.58;100.00
7407;BME280;3745;56.964;24.128;2023-07-13T09:59:45;100751.44;;;24.57;100.00
7407;BME280;3745;56.964;24.128;2023-07-13T10:02:31;100746.97;;;24.79;100.00
7407;BME280;3745;56.964;24.128;2023-07-13T10:05:03;100701.63;;;24.52;100.00
7407;BME280;3745;56.964;24.128;2023-07-13T10:07:31;100714.91;;;24.63;100.00
7407;BME280;3745;56.964;24.128;2023-07-13T10:10:01;100746.84;;;24.82;100.00
7407;BME280;3745;56.964;24.128;2023-07-13T10:12:29;100746.84;;;24.82;100.00
7407;BME280;3745;56.964;24.128;2023-07-13T10:15:00;100733.22;;;24.77;100.00
7407;BME280;3745;56.964;24.128;2023-07-13T10:17:31;100749.03;;;24.91;100.00
7407;BME280;3745;56.964;24.128;2023-07-13T10:20:03;100738.09;;;25.03;100.00
7407;BME280;3745;56.964;24.128;2023-07-13T10:22:44;100753.13;;;24.95;100.00
7407;BME280;3745;56.964;24.128;2023-07-13T10:25:32;100740.25;;;24.94;100.00
7407;BME280;3745;56.964;24.128;2023-07-13T10:28:04;100698.41;;;24.84;100.00
7407;BME280;3745;56.964;24.128;2023-07-13T10:30:35;100651.75;;;24.67;100.00
7407;BME280;3745;56.964;24.128;2023-07-13T10:33:10;100743.72;;;25.11;100.00
7407;BME280;3745;56.964;24.128;2023-07-13T10:35:37;100710.59;;;24.82;100.00
7407;BME280;3745;56.964;24.128;2023-07-13T10:38:11;100701.84;;;24.85;100.00
7407;BME280;3745;56.964;24.128;2023-07-13T10:40:45;100731.28;;;25.19;100.00
7407;BME280;3745;56.964;24.128;2023-07-13T10:43:18;100767.09;;;25.28;100.00
7407;BME280;3745;56.964;24.128;2023-07-13T10:45:46;100703.00;;;24.96;100.00
7407;BME280;3745;56.964;24.128;2023-07-13T10:48:15;100642.84;;;24.72;100.00
7407;BME280;3745;56.964;24.128;2023-07-13T10:50:45;100760.59;;;25.56;100.00
7407;BME280;3745;56.964;24.128;2023-07-13T10:53:28;100616.41;;;24.85;100.00
7407;BME280;3745;56.964;24.128;2023-07-13T10:56:01;100701.22;;;25.32;100.00
7407;BME280;3745;56.964;24.128;2023-07-13T10:58:40;100756.94;;;25.60;100.00
7407;BME280;3745;56.964;24.128;2023-07-13T11:01:15;100659.97;;;24.94;100.00
7407;BME280;3745;56.964;24.128;2023-07-13T11:04:01;100767.00;;;25.66;100.00
7407;BME280;3745;56.964;24.128;2023-07-13T11:12:26;100772.31;;;25.97;100.00
7407;BME280;3745;56.964;24.128;2023-07-13T11:15:26;100779.72;;;26.05;100.00
7407;BME280;3745;56.964;24.128;2023-07-13T11:18:03;100709.19;;;25.47;100.00
7407;BME280;3745;56.964;24.128;2023-07-13T11:20:34;100772.88;;;25.52;100.00
7407;BME280;3745;56.964;24.128;2023-07-13T11:25:56;100767.16;;;25.63;100.00
7407;BME280;3745;56.964;24.128;2023-07-13T11:28:25;100566.13;;;24.36;100.00
7407;BME280;3745;56.964;24.128;2023-07-13T11:36:12;100780.06;;;25.46;100.00
7407;BME280;3745;56.964;24.128;2023-07-13T11:38:47;100639.63;;;24.67;100.00
7407;BME280;3745;56.964;24.128;2023-07-13T11:41:19;100752.31;;;25.48;100.00
7407;BME280;3745;56.964;24.128;2023-07-13T11:43:50;100784.84;;;25.55;100.00
7407;BME280;3745;56.964;24.128;2023-07-13T11:46:24;100779.97;;;25.49;100.00
7407;BME280;3745;56.964;24.128;2023-07-13T11:48:51;100780.88;;;25.65;100.00
7407;BME280;3745;56.964;24.128;2023-07-13T11:53:50;100793.41;;;25.74;100.00
7407;BME280;3745;56.964;24.128;2023-07-13T11:56:17;100728.03;;;25.14;100.00
7407;BME280;3745;56.964;24.128;2023-07-13T11:58:43;100683.56;;;24.69;100.00
7407;BME280;3745;56.964;24.128;2023-07-13T12:01:30;100771.03;;;25.18;100.00
7407;BME280;3745;56.964;24.128;2023-07-13T12:04:02;100721.28;;;24.93;100.00
7407;BME280;3745;56.964;24.128;2023-07-13T12:06:33;100712.25;;;24.83;100.00
7407;BME280;3745;56.964;24.128;2023-07-13T12:09:11;100787.97;;;25.25;100.00
7407;BME280;3745;56.964;24.128;2023-07-13T12:11:51;100757.28;;;25.16;100.00
7407;BME280;3745;56.964;24.128;2023-07-13T12:14:18;100694.06;;;24.66;100.00
7407;BME280;3745;56.964;24.128;2023-07-13T12:16:45;100793.84;;;25.10;100.00
7407;BME280;3745;56.964;24.128;2023-07-13T12:19:26;100771.75;;;24.85;100.00
7407;BME280;3745;56.964;24.128;2023-07-13T12:21:58;100716.19;;;24.73;100.00
7407;BME280;3745;56.964;24.128;2023-07-13T12:24:28;100790.59;;;25.43;100.00
7407;BME280;3745;56.964;24.128;2023-07-13T12:26:59;100785.59;;;25.38;100.00
7407;BME280;3745;56.964;24.128;2023-07-13T12:29:26;100797.31;;;25.47;100.00
7407;BME280;3745;56.964;24.128;2023-07-13T12:31:53;100681.19;;;24.46;100.00
7407;BME280;3745;56.964;24.128;2023-07-13T12:34:21;100664.72;;;24.30;100.00
7407;BME280;3745;56.964;24.128;2023-07-13T12:39:18;100799.06;;;24.92;100.00
7407;BME280;3745;56.964;24.128;2023-07-13T12:41:45;100791.78;;;24.81;100.00
7407;BME280;3745;56.964;24.128;2023-07-13T12:44:34;100749.75;;;24.56;100.00
7407;BME280;3745;56.964;24.128;2023-07-13T12:47:06;100763.63;;;24.55;100.00
7407;BME280;3745;56.964;24.128;2023-07-13T12:49:41;100706.25;;;24.26;100.00
7407;BME280;3745;56.964;24.128;2023-07-13T12:52:16;100748.66;;;24.22;100.00
7407;BME280;3745;56.964;24.128;2023-07-13T12:54:56;100745.72;;;24.10;100.00
7407;BME280;3745;56.964;24.128;2023-07-13T12:57:23;100790.69;;;24.27;100.00
7407;BME280;3745;56.964;24.128;2023-07-13T12:59:52;100807.09;;;24.06;100.00
7407;BME280;3745;56.964;24.128;2023-07-13T13:02:38;100773.63;;;23.83;100.00
7407;BME280;3745;56.964;24.128;2023-07-13T13:05:04;100807.72;;;24.13;100.00
7407;BME280;3745;56.964;24.128;2023-07-13T13:07:31;100683.25;;;23.40;100.00
7407;BME280;3745;56.964;24.128;2023-07-13T13:09:59;100751.50;;;23.76;100.00
7407;BME280;3745;56.964;24.128;2023-07-13T13:12:25;100625.34;;;23.03;100.00
7407;BME280;3745;56.964;24.128;2023-07-13T13:14:51;100677.81;;;23.26;100.00
7407;BME280;3745;56.964;24.128;2023-07-13T13:17:23;100758.88;;;23.85;100.00
7407;BME280;3745;56.964;24.128;2023-07-13T13:19:51;100798.31;;;24.10;100.00
7407;BME280;3745;56.964;24.128;2023-07-13T13:22:21;100809.16;;;23.98;100.00
7407;BME280;3745;56.964;24.128;2023-07-13T13:24:47;100801.78;;;24.09;100.00
7407;BME280;3745;56.964;24.128;2023-07-13T13:27:17;100811.38;;;24.27;100.00